Terminal Aerodrome Forecast
Issued by NWS Sioux Falls, SD

Home | Current Version | Previous Version | Text Only | Print | Product List | Glossary Off
Versions: 1 2 3 4 5 6 7 8 9 10 11 12 13 14 15 16 17 18 19

000
FTUS43 KFSD 211552 AAB
TAFFSD
TAF AMD
KFSD 211552Z 2116/2212 12006KT P6SM SCT009 BKN045
      TEMPO 2116/2118 5SM -TSRA BKN015 OVC035CB
     FM211800 15006KT P6SM VCTS BKN020CB
     FM211900 05009KT 6SM SHRA OVC035
     FM212200 34011KT P6SM OVC040
     FM220100 35006KT P6SM BKN045
     FM220500 33007KT P6SM SCT150=

USA.gov is the U.S. government's official web portal to all federal, state and local government web resources and services.